Time;durP1;ratioP1;P1;durP2;ratioP2;P2;SDS_P1;SDS_P2;PMS_P1;PMS_P2;Temp;Humidity;BMP_temperature;BMP_pressure;BME280_temperature;BME280_humidity;BME280_pressure;Samples;Min_cycle;Max_cycle;Signal;HPM_P1;HPM_P2
2021/10/28 00:15:26;;;;;;;12.85;10.85;;;7.60;99.90;;;;;;4969191;28;20191;-54
2021/10/28 00:20:28;;;;;;;11.88;10.38;;;7.70;99.90;;;;;;4968616;28;20204;-53
2021/10/28 00:22:55;;;;;;;12.98;11.00;;;7.60;99.90;;;;;;4953820;28;20209;-54
2021/10/28 00:25:21;;;;;;;13.10;10.40;;;7.50;99.90;;;;;;4958485;28;20220;-52
2021/10/28 00:27:49;;;;;;;12.63;11.00;;;7.50;99.90;;;;;;4956750;28;20194;-52
2021/10/28 00:30:17;;;;;;;14.57;11.30;;;7.50;99.90;;;;;;4960318;28;20455;-53
2021/10/28 00:32:42;;;;;;;13.15;11.23;;;6.80;99.90;;;;;;4954142;28;20681;-53
2021/10/28 00:35:08;;;;;;;14.27;10.50;;;6.80;99.90;;;;;;4960204;28;20247;-54
2021/10/28 00:37:34;;;;;;;16.50;11.80;;;7.30;99.90;;;;;;4953309;28;20228;-53
2021/10/28 00:40:00;;;;;;;17.15;10.68;;;7.10;99.90;;;;;;4954599;28;20228;-54
2021/10/28 00:42:26;;;;;;;13.50;11.23;;;6.50;99.90;;;;;;4958252;28;20732;-55
2021/10/28 00:44:52;;;;;;;11.65;10.45;;;7.00;99.90;;;;;;4962465;28;20600;-55
2021/10/28 00:47:17;;;;;;;15.47;11.60;;;7.10;99.90;;;;;;4958817;28;20185;-54
2021/10/28 00:49:43;;;;;;;14.60;12.27;;;6.70;99.90;;;;;;4953906;28;20212;-53
2021/10/28 00:52:10;;;;;;;14.47;11.87;;;6.90;99.90;;;;;;4961033;28;20654;-53
2021/10/28 00:54:35;;;;;;;16.08;12.45;;;7.10;99.90;;;;;;4954849;28;20198;-54
2021/10/28 00:57:02;;;;;;;14.73;12.07;;;6.90;99.90;;;;;;4954932;28;20189;-53
2021/10/28 00:59:28;;;;;;;13.45;12.00;;;6.90;99.90;;;;;;4956758;28;20571;-55
2021/10/28 01:01:53;;;;;;;15.27;12.07;;;7.20;99.90;;;;;;4952399;28;20215;-54
2021/10/28 01:04:19;;;;;;;17.20;13.37;;;6.80;99.90;;;;;;4953246;28;20242;-52
2021/10/28 01:06:45;;;;;;;15.83;13.43;;;7.00;99.90;;;;;;4960946;28;20220;-54
2021/10/28 01:09:11;;;;;;;15.13;12.70;;;6.80;99.90;;;;;;4956752;28;20225;-54
2021/10/28 01:11:38;;;;;;;16.47;13.03;;;7.00;99.90;;;;;;4959240;28;20200;-55
2021/10/28 01:14:03;;;;;;;18.50;14.10;;;6.90;99.90;;;;;;4953773;28;20845;-53
2021/10/28 01:16:30;;;;;;;15.50;12.20;;;7.20;99.90;;;;;;4958953;28;20242;-55
2021/10/28 01:18:55;;;;;;;15.30;13.38;;;7.00;99.90;;;;;;4953738;28;20670;-54
2021/10/28 01:21:22;;;;;;;14.93;12.90;;;7.20;99.90;;;;;;4955032;28;20268;-55
2021/10/28 01:23:48;;;;;;;16.77;13.93;;;7.10;99.90;;;;;;4952304;28;20224;-56
2021/10/28 01:26:15;;;;;;;15.02;12.60;;;7.20;99.90;;;;;;4953401;28;20701;-52
2021/10/28 01:28:52;;;;;;;17.75;14.35;;;7.20;99.90;;;;;;4957577;28;20284;-52
2021/10/28 01:31:21;;;;;;;16.75;14.48;;;7.10;99.90;;;;;;4956671;28;20225;-53
2021/10/28 01:33:46;;;;;;;20.05;13.23;;;6.90;99.90;;;;;;4961339;28;20199;-54
2021/10/28 01:36:17;;;;;;;18.10;14.00;;;7.20;99.90;;;;;;4956393;28;20275;-54
2021/10/28 01:38:42;;;;;;;17.45;15.13;;;7.00;99.90;;;;;;4956127;28;20244;-54
2021/10/28 01:41:08;;;;;;;17.13;14.27;;;7.00;99.90;;;;;;4959222;28;20233;-53
2021/10/28 01:43:35;;;;;;;17.10;15.13;;;7.10;99.90;;;;;;4956797;28;20562;-54
2021/10/28 01:46:00;;;;;;;22.83;14.90;;;7.10;99.90;;;;;;4967743;28;20208;-54
2021/10/28 01:48:27;;;;;;;19.60;14.83;;;6.40;99.90;;;;;;4953985;28;20229;-53
2021/10/28 01:50:53;;;;;;;20.63;15.50;;;7.50;99.90;;;;;;4956275;28;20204;-54
2021/10/28 01:53:19;;;;;;;21.88;16.40;;;7.10;99.90;;;;;;4956710;28;20633;-54
2021/10/28 01:55:46;;;;;;;21.27;16.33;;;7.30;99.90;;;;;;4955624;28;20410;-52
2021/10/28 01:58:12;;;;;;;19.52;15.55;;;7.00;99.90;;;;;;4960894;28;20447;-54
2021/10/28 02:00:39;;;;;;;23.98;19.05;;;6.90;99.90;;;;;;4954137;28;20279;-54
2021/10/28 02:03:05;;;;;;;25.83;19.38;;;7.30;99.90;;;;;;4958908;28;20221;-53
2021/10/28 02:05:30;;;;;;;26.40;18.17;;;7.00;99.90;;;;;;4957899;28;20187;-53
2021/10/28 02:07:56;;;;;;;22.20;17.20;;;7.10;99.90;;;;;;4960575;28;20742;-54
2021/10/28 02:10:22;;;;;;;27.40;18.73;;;6.80;99.90;;;;;;4960694;28;20474;-52
2021/10/28 02:12:49;;;;;;;26.73;19.83;;;6.60;99.90;;;;;;4951850;28;20200;-52
2021/10/28 02:15:19;;;;;;;25.80;19.67;;;6.80;99.90;;;;;;4957738;28;20192;-52
2021/10/28 02:17:46;;;;;;;25.05;19.60;;;6.40;99.90;;;;;;4955761;28;20195;-54
2021/10/28 02:20:14;;;;;;;27.95;20.67;;;6.40;99.90;;;;;;4966074;28;20293;-53
2021/10/28 02:22:41;;;;;;;26.13;20.10;;;6.80;99.90;;;;;;4963495;28;20306;-53
2021/10/28 02:25:08;;;;;;;23.60;19.05;;;7.30;99.90;;;;;;4969179;28;20189;-52
2021/10/28 02:27:34;;;;;;;25.25;19.63;;;6.80;99.90;;;;;;4966736;28;20195;-55
2021/10/28 02:30:00;;;;;;;25.08;18.48;;;6.50;99.90;;;;;;4970811;28;20204;-52
2021/10/28 02:32:26;;;;;;;25.77;18.92;;;6.90;99.90;;;;;;4969379;28;20202;-54
2021/10/28 02:34:52;;;;;;;25.48;18.77;;;7.00;99.90;;;;;;4972453;28;20657;-53
2021/10/28 02:37:19;;;;;;;23.77;19.00;;;6.40;99.90;;;;;;4963878;28;20292;-55
2021/10/28 02:39:47;;;;;;;23.90;19.30;;;7.00;99.90;;;;;;4969079;28;20204;-54
2021/10/28 02:42:13;;;;;;;22.88;19.13;;;6.90;99.90;;;;;;4968155;28;20242;-55
2021/10/28 02:44:39;;;;;;;27.50;19.08;;;6.70;99.90;;;;;;4969629;28;20180;-52
2021/10/28 02:47:04;;;;;;;25.40;20.63;;;7.00;99.90;;;;;;4967706;28;20192;-54
2021/10/28 02:49:30;;;;;;;23.73;19.87;;;6.90;99.90;;;;;;4967133;28;20267;-54
2021/10/28 02:51:56;;;;;;;24.10;18.60;;;6.90;99.90;;;;;;4966866;28;20193;-53
2021/10/28 02:54:22;;;;;;;24.10;18.87;;;6.50;99.90;;;;;;4966216;28;20194;-53
2021/10/28 02:56:48;;;;;;;23.45;18.70;;;6.60;99.90;;;;;;4969694;28;20679;-53
2021/10/28 02:59:15;;;;;;;22.27;18.02;;;6.80;99.90;;;;;;4965335;28;20239;-54
2021/10/28 03:01:46;;;;;;;21.77;18.27;;;6.60;99.90;;;;;;4963321;28;20239;-53
2021/10/28 03:04:17;;;;;;;23.25;18.50;;;6.70;99.90;;;;;;4966467;28;20189;-55
2021/10/28 03:06:44;;;;;;;23.20;17.33;;;6.60;99.90;;;;;;4967514;28;20208;-54
2021/10/28 03:09:13;;;;;;;19.90;16.70;;;6.60;99.90;;;;;;4963163;28;20212;-56
2021/10/28 03:11:41;;;;;;;19.38;16.70;;;6.80;99.90;;;;;;4964420;28;20189;-55
2021/10/28 03:14:11;;;;;;;21.30;17.17;;;6.90;99.90;;;;;;4964033;28;20233;-54
2021/10/28 03:17:01;;;;;;;21.15;16.50;;;6.90;99.90;;;;;;4962066;28;20665;-54
2021/10/28 03:19:44;;;;;;;17.88;14.75;;;6.80;99.90;;;;;;4959191;28;20215;-54
2021/10/28 03:27:34;;;;;;;19.00;16.30;;;6.80;99.90;;;;;;4969898;28;20189;-54
2021/10/28 03:30:00;;;;;;;17.23;15.43;;;6.50;99.90;;;;;;4960513;28;20206;-55
2021/10/28 03:32:28;;;;;;;19.30;15.95;;;6.70;99.90;;;;;;4966280;28;20252;-54
2021/10/28 03:34:54;;;;;;;17.13;15.32;;;6.70;99.90;;;;;;4959216;28;20191;-55
2021/10/28 03:37:29;;;;;;;18.00;15.90;;;6.50;99.90;;;;;;4965021;28;20235;-54
2021/10/28 03:58:10;;;;;;;18.70;15.47;;;6.70;99.90;;;;;;4958955;28;20272;-55
2021/10/28 04:08:51;;;;;;;16.37;14.33;;;6.40;99.90;;;;;;4958155;28;20272;-54
2021/10/28 04:19:32;;;;;;;18.10;14.95;;;6.60;99.90;;;;;;4962364;28;20200;-54
2021/10/28 04:30:10;;;;;;;18.60;14.70;;;6.60;99.90;;;;;;4958001;28;20591;-54
2021/10/28 04:32:36;;;;;;;19.70;15.67;;;6.50;99.90;;;;;;4967526;28;20202;-53
2021/10/28 04:35:02;;;;;;;18.10;15.97;;;6.60;99.90;;;;;;4961811;28;20203;-55
2021/10/28 04:37:28;;;;;;;17.17;15.38;;;6.50;99.90;;;;;;4959964;28;20228;-53
2021/10/28 04:39:54;;;;;;;18.60;15.17;;;5.80;99.90;;;;;;4963186;28;20234;-54
2021/10/28 04:42:20;;;;;;;21.25;16.25;;;6.50;99.90;;;;;;4957598;28;20200;-54
2021/10/28 04:44:46;;;;;;;20.08;16.92;;;6.50;99.90;;;;;;4960353;28;20183;-55
2021/10/28 04:47:12;;;;;;;20.30;16.10;;;6.60;99.90;;;;;;4959023;28;20203;-54
2021/10/28 04:49:38;;;;;;;21.00;17.23;;;6.70;99.90;;;;;;4959284;28;20468;-55
2021/10/28 04:52:04;;;;;;;18.13;15.73;;;6.20;99.90;;;;;;4956464;28;20247;-54
2021/10/28 04:54:29;;;;;;;21.15;17.27;;;6.90;99.90;;;;;;4956951;28;20188;-56
2021/10/28 04:56:55;;;;;;;20.43;17.03;;;6.70;99.90;;;;;;4967703;28;20258;-55
2021/10/28 04:59:22;;;;;;;21.27;16.87;;;6.70;99.90;;;;;;4960232;28;20524;-54
2021/10/28 05:01:47;;;;;;;21.55;17.55;;;6.90;99.90;;;;;;4959113;28;20269;-56
2021/10/28 05:04:13;;;;;;;20.90;17.23;;;7.00;99.90;;;;;;4961193;28;20646;-56
2021/10/28 05:06:38;;;;;;;23.30;17.30;;;6.80;99.90;;;;;;4969834;28;20191;-56
2021/10/28 05:09:04;;;;;;;18.70;16.30;;;6.60;99.90;;;;;;4955038;28;20674;-55
2021/10/28 05:11:30;;;;;;;21.88;18.00;;;6.80;99.90;;;;;;4961273;28;20275;-53
2021/10/28 05:13:56;;;;;;;26.50;18.93;;;6.70;99.90;;;;;;4953696;28;20280;-54
2021/10/28 05:16:22;;;;;;;23.70;18.30;;;7.50;99.90;;;;;;4960705;28;20206;-54
2021/10/28 05:18:47;;;;;;;25.60;19.53;;;7.00;99.90;;;;;;4960825;28;20202;-54
2021/10/28 05:21:15;;;;;;;22.40;18.03;;;7.20;99.90;;;;;;4958995;28;20452;-53
2021/10/28 05:23:41;;;;;;;24.35;18.35;;;7.30;99.90;;;;;;4959677;28;20198;-55
2021/10/28 05:26:07;;;;;;;24.50;19.83;;;7.20;99.90;;;;;;4958805;28;20669;-57
2021/10/28 05:28:34;;;;;;;25.90;19.23;;;7.30;99.90;;;;;;4955349;28;20199;-53
2021/10/28 05:31:00;;;;;;;22.48;18.42;;;7.30;99.90;;;;;;4962514;28;20277;-54
2021/10/28 05:33:26;;;;;;;25.70;19.67;;;7.10;99.90;;;;;;4962948;28;20607;-53
2021/10/28 05:35:51;;;;;;;24.50;18.87;;;7.30;99.90;;;;;;4961298;28;20375;-54
2021/10/28 05:38:18;;;;;;;25.20;19.90;;;7.60;99.90;;;;;;4953244;28;20246;-54
2021/10/28 05:40:43;;;;;;;23.90;18.40;;;7.30;99.90;;;;;;4951851;28;20295;-54
2021/10/28 05:43:10;;;;;;;22.67;18.90;;;7.60;99.90;;;;;;4959638;28;20378;-54
2021/10/28 05:45:36;;;;;;;22.67;17.60;;;7.40;99.90;;;;;;4953841;28;21120;-57
2021/10/28 05:48:03;;;;;;;25.23;19.38;;;7.70;99.90;;;;;;4957260;28;20242;-56
2021/10/28 05:50:30;;;;;;;22.90;17.85;;;7.60;99.90;;;;;;4961842;28;20231;-56
2021/10/28 05:52:57;;;;;;;22.52;18.60;;;7.20;99.90;;;;;;4954280;28;20193;-55
2021/10/28 05:55:24;;;;;;;28.55;20.58;;;7.50;99.90;;;;;;4957932;28;20189;-55
2021/10/28 05:57:54;;;;;;;22.75;18.55;;;7.60;99.90;;;;;;4959263;28;20690;-56
2021/10/28 06:00:22;;;;;;;22.27;17.13;;;7.50;99.90;;;;;;4952373;28;20645;-55
2021/10/28 06:02:48;;;;;;;22.08;16.33;;;7.60;99.90;;;;;;4951800;28;20212;-56
2021/10/28 06:05:14;;;;;;;20.27;16.73;;;7.80;99.90;;;;;;4957549;28;20680;-53
2021/10/28 06:07:40;;;;;;;23.65;17.23;;;7.70;99.90;;;;;;4962987;28;20589;-54
2021/10/28 06:10:08;;;;;;;22.83;16.90;;;7.10;99.90;;;;;;4954589;28;20647;-57
2021/10/28 06:12:37;;;;;;;21.88;17.08;;;7.50;99.90;;;;;;4966063;28;20188;-54
2021/10/28 06:15:05;;;;;;;23.15;16.90;;;7.60;99.90;;;;;;4953720;28;20181;-57
2021/10/28 06:17:38;;;;;;;22.00;17.92;;;7.30;99.90;;;;;;4960397;28;20205;-58
2021/10/28 06:20:04;;;;;;;21.48;17.05;;;7.10;99.90;;;;;;4959253;28;20217;-53
2021/10/28 06:22:30;;;;;;;20.30;17.35;;;7.40;99.90;;;;;;4956815;28;20608;-55
2021/10/28 06:24:57;;;;;;;20.58;17.48;;;7.00;99.90;;;;;;4960552;28;20661;-54
2021/10/28 06:27:23;;;;;;;23.17;17.15;;;7.20;99.90;;;;;;4960513;28;20249;-52
2021/10/28 06:29:49;;;;;;;21.88;16.95;;;7.30;99.90;;;;;;4960877;28;20702;-53
2021/10/28 06:32:15;;;;;;;21.23;16.53;;;7.20;99.90;;;;;;4962207;28;20196;-55
2021/10/28 06:34:46;;;;;;;21.33;16.27;;;7.60;99.90;;;;;;4956366;28;20197;-52
2021/10/28 06:37:12;;;;;;;22.92;17.45;;;7.70;99.90;;;;;;4957949;28;20463;-53
2021/10/28 06:39:38;;;;;;;19.85;15.95;;;7.70;99.90;;;;;;4963122;28;20216;-52
2021/10/28 06:42:07;;;;;;;19.17;15.95;;;7.60;99.90;;;;;;4958880;28;20252;-52
2021/10/28 06:44:33;;;;;;;17.13;15.25;;;7.90;99.90;;;;;;4954995;28;20177;-50
2021/10/28 06:46:59;;;;;;;18.73;14.03;;;8.00;99.90;;;;;;4956244;28;20185;-52
2021/10/28 06:49:24;;;;;;;19.50;14.00;;;8.20;99.90;;;;;;4961456;28;20263;-55
2021/10/28 06:51:51;;;;;;;15.20;13.60;;;8.20;99.90;;;;;;4959039;28;20189;-52
2021/10/28 06:54:30;;;;;;;16.13;13.70;;;8.40;99.90;;;;;;4952837;29;20731;-53
2021/10/28 06:57:57;;;;;;;16.90;13.30;;;8.30;99.90;;;;;;4952700;28;20219;-56
2021/10/28 07:02:33;;;;;;;15.43;12.63;;;8.20;99.90;;;;;;4960002;28;20756;-56
2021/10/28 07:04:58;;;;;;;16.67;13.05;;;7.90;99.90;;;;;;4958413;28;20279;-54
2021/10/28 07:07:30;;;;;;;15.67;13.43;;;8.20;99.90;;;;;;4958978;28;20276;-55
2021/10/28 07:10:18;;;;;;;15.95;13.80;;;8.10;99.90;;;;;;4960493;28;20506;-57
2021/10/28 07:13:06;;;;;;;16.10;13.65;;;8.10;99.90;;;;;;4955727;28;20172;-55
2021/10/28 07:15:40;;;;;;;15.68;13.60;;;7.80;99.90;;;;;;4957005;28;20192;-55
2021/10/28 07:28:19;;;;;;;18.07;15.13;;;8.30;99.90;;;;;;4961026;28;20192;-54
2021/10/28 07:36:20;;;;;;;18.00;14.73;;;8.60;99.90;;;;;;4961491;28;20196;-53
2021/10/28 07:58:21;;;;;;;15.35;12.65;;;8.60;99.90;;;;;;4960714;28;20184;-54
2021/10/28 08:17:35;;;;;;;17.92;14.63;;;8.80;99.90;;;;;;4958285;28;20226;-55
2021/10/28 08:20:00;;;;;;;13.85;11.85;;;9.20;99.90;;;;;;4964795;28;20206;-54
2021/10/28 08:22:35;;;;;;;16.17;13.68;;;8.90;99.90;;;;;;4958227;28;20200;-54
2021/10/28 08:30:22;;;;;;;17.73;13.50;;;9.20;99.90;;;;;;4968480;28;20637;-53
2021/10/28 08:32:48;;;;;;;18.30;14.15;;;9.20;99.90;;;;;;4964237;28;20701;-50
2021/10/28 08:35:15;;;;;;;16.07;13.40;;;9.50;99.90;;;;;;4957571;28;20196;-52
2021/10/28 08:37:49;;;;;;;14.93;12.43;;;9.40;99.90;;;;;;4957804;28;20197;-51
2021/10/28 08:40:15;;;;;;;14.52;12.95;;;9.40;99.90;;;;;;4960605;28;20212;-51
2021/10/28 08:42:42;;;;;;;14.65;13.13;;;9.70;99.90;;;;;;4960127;28;20580;-52
2021/10/28 08:45:11;;;;;;;14.63;12.50;;;9.90;99.90;;;;;;4958626;28;20185;-52
2021/10/28 08:47:45;;;;;;;12.98;11.57;;;9.90;99.90;;;;;;4958299;28;20177;-54
2021/10/28 08:50:14;;;;;;;15.57;13.02;;;9.90;99.90;;;;;;4957099;28;20219;-52
2021/10/28 08:55:31;;;;;;;15.48;12.30;;;10.30;99.90;;;;;;4957881;28;20663;-51
2021/10/28 09:24:23;;;;;;;15.05;13.35;;;13.10;99.90;;;;;;5060479;28;20221;-53
2021/10/28 09:27:13;;;;;;;16.85;13.88;;;13.40;99.90;;;;;;5060755;28;20264;-54
2021/10/28 09:44:10;;;;;;;17.60;14.57;;;13.70;99.90;;;;;;5057644;28;20178;-54
2021/10/28 09:51:50;;;;;;;15.55;13.20;;;13.90;99.90;;;;;;5057053;28;20189;-53
2021/10/28 09:54:40;;;;;;;14.90;13.30;;;13.80;99.90;;;;;;5054590;28;20739;-52
2021/10/28 09:59:53;;;;;;;16.67;14.05;;;13.80;99.90;;;;;;5054353;28;20281;-54
2021/10/28 10:02:32;;;;;;;18.27;14.63;;;13.90;99.90;;;;;;5064334;28;20181;-55
2021/10/28 10:05:05;;;;;;;14.50;12.98;;;14.30;99.90;;;;;;5058690;28;20188;-56
2021/10/28 10:07:31;;;;;;;16.83;14.50;;;13.70;99.90;;;;;;5057287;28;20185;-54
2021/10/28 10:09:58;;;;;;;15.70;14.02;;;14.70;99.90;;;;;;5067073;28;20688;-54
2021/10/28 10:12:24;;;;;;;14.55;12.95;;;15.00;99.90;;;;;;5052239;28;20220;-52
2021/10/28 10:14:51;;;;;;;14.50;13.00;;;15.90;98.70;;;;;;5071425;28;20712;-53
2021/10/28 10:17:17;;;;;;;16.00;13.25;;;16.60;97.50;;;;;;5060663;28;20233;-53
2021/10/28 10:19:49;;;;;;;14.98;13.38;;;16.70;96.40;;;;;;5063820;28;20210;-53
2021/10/28 11:19:26;;;;;;;13.90;12.60;;;19.80;86.80;;;;;;5046258;28;20204;-53
2021/10/28 12:45:30;;;;;;;12.45;10.88;;;17.00;94.80;;;;;;5036013;28;20193;-53
2021/10/28 12:48:06;;;;;;;12.07;10.95;;;16.90;94.90;;;;;;5048888;28;20216;-55
2021/10/28 12:53:28;;;;;;;10.48;9.48;;;17.20;95.10;;;;;;5049070;28;20546;-54
2021/10/28 13:55:40;;;;;;;11.13;9.25;;;16.90;94.70;;;;;;5047322;28;20247;-52
2021/10/28 14:38:18;;;;;;;8.90;8.07;;;16.30;95.70;;;;;;5045644;28;20186;-52
2021/10/28 15:29:56;;;;;;;9.02;8.13;;;15.30;99.90;;;;;;5036250;28;20251;-54
2021/10/28 15:41:10;;;;;;;11.07;7.82;;;15.20;99.90;;;;;;5039453;28;20220;-54
2021/10/28 16:23:31;;;;;;;10.35;9.25;;;13.60;99.90;;;;;;5037527;28;20292;-54
2021/10/28 16:25:57;;;;;;;10.43;9.30;;;13.20;99.90;;;;;;5031874;28;20568;-54
2021/10/28 16:28:25;;;;;;;10.77;9.00;;;13.50;99.90;;;;;;5033255;28;20181;-51
2021/10/28 16:30:50;;;;;;;10.55;9.45;;;13.20;99.90;;;;;;5042692;28;20518;-54
2021/10/28 16:33:16;;;;;;;10.73;9.60;;;13.10;99.90;;;;;;5034497;28;20316;-53
2021/10/28 16:35:43;;;;;;;10.50;9.50;;;13.20;99.90;;;;;;5044011;28;20192;-54
2021/10/28 16:38:10;;;;;;;11.75;9.45;;;12.90;99.90;;;;;;5040420;28;20448;-54
2021/10/28 16:40:36;;;;;;;11.15;10.05;;;12.80;99.90;;;;;;5037737;28;20229;-53
2021/10/28 16:43:02;;;;;;;14.27;9.65;;;12.70;99.90;;;;;;5030569;28;20276;-54
2021/10/28 16:45:29;;;;;;;11.45;9.45;;;12.80;99.90;;;;;;5038290;28;20791;-54
2021/10/28 16:47:55;;;;;;;10.35;9.23;;;12.60;99.90;;;;;;5043700;28;20185;-52
2021/10/28 16:50:21;;;;;;;10.20;9.10;;;12.70;99.90;;;;;;5032849;28;20217;-52
2021/10/28 16:52:46;;;;;;;11.60;9.30;;;12.60;99.90;;;;;;5037157;28;20187;-53
2021/10/28 16:55:12;;;;;;;13.03;9.03;;;12.70;99.90;;;;;;5038958;28;20468;-53
2021/10/28 16:57:38;;;;;;;9.30;8.40;;;12.40;99.90;;;;;;5046328;28;20632;-54
2021/10/28 17:00:06;;;;;;;11.20;9.70;;;12.40;99.90;;;;;;5045350;28;20213;-54
2021/10/28 17:02:32;;;;;;;9.55;8.63;;;12.40;99.90;;;;;;5040499;28;20471;-54
2021/10/28 17:04:58;;;;;;;12.95;9.30;;;11.90;99.90;;;;;;5033226;28;20641;-54
2021/10/28 17:07:24;;;;;;;10.93;9.83;;;11.90;99.90;;;;;;5038132;28;20219;-53
2021/10/28 17:09:50;;;;;;;11.15;9.55;;;12.20;99.90;;;;;;5039198;28;20478;-54
2021/10/28 17:12:16;;;;;;;11.87;9.43;;;11.90;99.90;;;;;;5038121;28;20180;-52
2021/10/28 17:14:43;;;;;;;10.40;9.10;;;12.00;99.90;;;;;;5037325;28;20195;-54
2021/10/28 17:17:09;;;;;;;9.93;8.90;;;11.70;99.90;;;;;;5041771;28;20465;-53
2021/10/28 17:19:35;;;;;;;9.80;8.80;;;11.60;99.90;;;;;;5044045;28;20570;-54
2021/10/28 17:22:00;;;;;;;15.00;11.33;;;11.40;99.90;;;;;;5029901;28;20194;-54
2021/10/28 17:26:52;;;;;;;11.60;10.30;;;11.60;99.90;;;;;;5037515;28;20194;-53
2021/10/28 17:29:18;;;;;;;12.90;11.50;;;11.40;99.90;;;;;;5041034;28;20210;-54
2021/10/28 17:31:44;;;;;;;12.50;10.17;;;11.50;99.90;;;;;;5034375;28;20225;-53
2021/10/28 17:34:09;;;;;;;12.50;9.90;;;11.50;99.90;;;;;;5034326;28;20456;-53
2021/10/28 17:36:35;;;;;;;11.97;9.40;;;11.40;99.90;;;;;;5032435;28;20471;-54
2021/10/28 17:39:01;;;;;;;12.90;9.50;;;11.60;99.90;;;;;;5047088;28;21045;-53
2021/10/28 17:41:27;;;;;;;13.07;10.38;;;11.50;99.90;;;;;;5046090;28;20659;-52
2021/10/28 17:43:55;;;;;;;10.80;9.60;;;11.40;99.90;;;;;;5044725;28;20240;-52
2021/10/28 17:46:24;;;;;;;11.43;10.02;;;11.40;99.90;;;;;;5035607;28;20444;-52
2021/10/28 17:48:50;;;;;;;12.75;9.98;;;11.20;99.90;;;;;;5044587;28;20190;-53
2021/10/28 17:51:17;;;;;;;11.23;9.75;;;10.80;99.90;;;;;;5042731;28;20227;-52
2021/10/28 17:53:44;;;;;;;13.25;11.85;;;10.80;99.90;;;;;;5044572;28;20560;-54
2021/10/28 17:56:12;;;;;;;12.80;11.50;;;11.00;99.90;;;;;;5043384;28;20302;-51
2021/10/28 17:58:38;;;;;;;12.68;10.45;;;10.80;99.90;;;;;;5044313;28;20195;-53
2021/10/28 18:01:03;;;;;;;14.87;10.37;;;11.00;99.90;;;;;;5037038;28;20186;-53
2021/10/28 18:03:29;;;;;;;11.90;9.80;;;11.10;99.90;;;;;;5034834;28;20194;-55
2021/10/28 18:05:55;;;;;;;12.37;11.03;;;11.00;99.90;;;;;;5043301;28;20174;-54
2021/10/28 18:08:21;;;;;;;11.70;10.23;;;11.10;99.90;;;;;;5040434;28;20277;-53
2021/10/28 18:10:47;;;;;;;10.65;9.55;;;11.10;99.90;;;;;;5044613;28;20217;-54
2021/10/28 18:13:14;;;;;;;12.47;10.40;;;10.90;99.90;;;;;;5041661;28;20183;-52
2021/10/28 18:15:42;;;;;;;14.77;12.32;;;10.70;99.90;;;;;;5046136;28;20468;-53
2021/10/28 18:18:09;;;;;;;13.25;11.18;;;10.50;99.90;;;;;;5044696;28;20178;-53
2021/10/28 18:20:36;;;;;;;12.85;10.98;;;10.30;99.90;;;;;;5040343;28;20198;-51
2021/10/28 18:23:02;;;;;;;13.13;11.40;;;10.70;99.90;;;;;;5036989;28;20278;-52
2021/10/28 18:25:28;;;;;;;12.23;10.30;;;10.50;99.90;;;;;;5034762;28;20269;-50
2021/10/28 18:27:56;;;;;;;14.27;11.38;;;10.30;99.90;;;;;;5042997;28;20194;-51
2021/10/28 18:30:24;;;;;;;12.13;10.88;;;10.50;99.90;;;;;;5044739;28;20288;-50
2021/10/28 18:32:50;;;;;;;12.88;11.43;;;10.30;99.90;;;;;;5039445;28;20591;-50
2021/10/28 18:35:16;;;;;;;13.07;11.35;;;10.20;99.90;;;;;;5048416;28;20181;-52
2021/10/28 18:37:43;;;;;;;14.00;11.77;;;10.60;99.90;;;;;;5046971;28;20280;-54
2021/10/28 18:40:11;;;;;;;13.98;11.68;;;10.40;99.90;;;;;;5034955;28;20848;-53
2021/10/28 18:42:37;;;;;;;17.08;12.80;;;10.30;99.90;;;;;;5044121;28;20182;-53
2021/10/28 18:45:05;;;;;;;16.92;13.80;;;10.10;99.90;;;;;;5043271;28;20197;-53
2021/10/28 18:47:35;;;;;;;16.15;14.05;;;10.00;99.90;;;;;;5041550;28;20578;-54
2021/10/28 18:50:01;;;;;;;16.77;13.25;;;10.10;99.90;;;;;;5037755;28;20251;-55
2021/10/28 18:52:29;;;;;;;13.48;12.05;;;10.00;99.90;;;;;;5033827;28;20273;-53
2021/10/28 18:54:55;;;;;;;15.20;13.02;;;10.30;99.90;;;;;;5034852;28;20216;-53
2021/10/28 18:57:21;;;;;;;14.50;12.97;;;9.70;99.90;;;;;;5036308;28;20214;-55
2021/10/28 18:59:48;;;;;;;14.80;13.20;;;10.10;99.90;;;;;;5048358;28;20836;-53
2021/10/28 19:02:15;;;;;;;15.15;13.50;;;10.10;99.90;;;;;;5047309;28;20190;-53
2021/10/28 19:04:41;;;;;;;19.20;15.30;;;10.00;99.90;;;;;;5036792;28;20185;-52
2021/10/28 19:07:07;;;;;;;15.83;13.50;;;9.90;99.90;;;;;;5035484;28;20225;-53
2021/10/28 19:09:32;;;;;;;14.63;13.03;;;9.90;99.90;;;;;;5035999;28;20535;-54
2021/10/28 19:12:00;;;;;;;13.70;12.17;;;9.40;99.90;;;;;;5040359;28;20451;-53
2021/10/28 19:14:26;;;;;;;15.85;13.52;;;9.80;99.90;;;;;;5036386;28;20590;-54
2021/10/28 19:16:52;;;;;;;17.80;15.25;;;10.00;99.90;;;;;;5037385;28;20206;-54
2021/10/28 19:19:17;;;;;;;16.33;14.60;;;9.80;99.90;;;;;;5036272;28;20233;-55
2021/10/28 19:21:44;;;;;;;16.70;13.70;;;9.70;99.90;;;;;;5037663;28;20265;-53
2021/10/28 19:24:10;;;;;;;15.88;12.75;;;9.60;99.90;;;;;;5044617;28;20419;-53
2021/10/28 19:26:35;;;;;;;19.75;14.68;;;9.50;99.90;;;;;;5047977;28;20239;-54
2021/10/28 19:29:05;;;;;;;18.47;12.63;;;9.60;99.90;;;;;;5033879;28;20209;-54
2021/10/28 19:31:33;;;;;;;14.25;12.70;;;9.40;99.90;;;;;;5034405;28;20340;-53
2021/10/28 19:34:01;;;;;;;16.27;13.18;;;9.30;99.90;;;;;;5040827;28;20579;-55
2021/10/28 19:46:45;;;;;;;16.20;13.13;;;9.50;99.90;;;;;;5038799;28;20205;-53
2021/10/28 19:49:11;;;;;;;18.17;13.30;;;9.40;99.90;;;;;;5041370;28;20206;-54
2021/10/28 19:51:36;;;;;;;14.40;12.83;;;9.30;99.90;;;;;;5048497;28;20189;-55
2021/10/28 19:54:03;;;;;;;21.27;14.40;;;9.40;99.90;;;;;;5044823;28;20658;-54
2021/10/28 19:56:30;;;;;;;16.60;14.32;;;9.40;99.90;;;;;;5040366;28;20230;-55
2021/10/28 19:58:59;;;;;;;14.73;13.13;;;9.10;99.90;;;;;;5042805;28;20247;-54
2021/10/28 20:01:34;;;;;;;15.57;13.70;;;9.20;99.90;;;;;;5039092;28;20190;-54
2021/10/28 20:20:08;;;;;;;15.13;13.18;;;9.10;99.90;;;;;;5044833;28;20251;-52
2021/10/28 20:22:40;;;;;;;16.17;13.52;;;9.20;99.90;;;;;;5038996;28;20474;-54
2021/10/28 20:25:07;;;;;;;17.55;13.60;;;9.10;99.90;;;;;;5044126;28;20189;-55
2021/10/28 20:27:33;;;;;;;18.50;14.00;;;9.00;99.90;;;;;;5044594;28;20178;-52
2021/10/28 20:29:59;;;;;;;16.70;13.50;;;8.90;99.90;;;;;;5042180;28;20221;-54
2021/10/28 20:32:26;;;;;;;16.33;14.00;;;9.00;99.90;;;;;;5044948;28;20506;-53
2021/10/28 20:37:18;;;;;;;15.77;13.20;;;8.90;99.90;;;;;;5043760;28;20194;-55
2021/10/28 20:39:46;;;;;;;15.45;12.90;;;8.90;99.90;;;;;;5046960;28;20305;-54
2021/10/28 20:42:17;;;;;;;17.65;14.02;;;9.00;99.90;;;;;;5044558;28;20606;-55
2021/10/28 20:44:47;;;;;;;14.10;12.60;;;8.80;99.90;;;;;;5037995;28;20197;-54
2021/10/28 20:47:13;;;;;;;14.38;12.88;;;8.70;99.90;;;;;;5035139;28;20182;-52
2021/10/28 20:49:39;;;;;;;17.30;14.70;;;8.70;99.90;;;;;;5041916;28;20260;-53
2021/10/28 20:52:06;;;;;;;16.57;14.77;;;8.70;99.90;;;;;;5045029;28;20190;-53
2021/10/28 20:54:31;;;;;;;16.17;14.43;;;8.70;99.90;;;;;;5045479;28;20187;-52
2021/10/28 20:57:01;;;;;;;15.97;14.30;;;8.90;99.90;;;;;;5043337;28;20224;-53
2021/10/28 20:59:28;;;;;;;17.65;14.70;;;8.70;99.90;;;;;;5045419;28;20721;-54
2021/10/28 21:01:53;;;;;;;21.02;18.88;;;9.10;99.90;;;;;;5044669;28;20178;-54
2021/10/28 21:04:19;;;;;;;18.00;16.10;;;8.90;99.90;;;;;;5037802;28;20178;-54
2021/10/28 21:06:45;;;;;;;17.00;14.40;;;9.00;99.90;;;;;;5047771;28;20619;-53
2021/10/28 21:09:10;;;;;;;17.80;15.33;;;8.90;99.90;;;;;;5045845;28;20193;-54
2021/10/28 21:11:37;;;;;;;17.20;14.00;;;9.00;99.90;;;;;;5043903;28;20233;-52
2021/10/28 21:14:07;;;;;;;20.45;16.13;;;9.20;99.90;;;;;;5042962;28;20197;-53
2021/10/28 21:16:36;;;;;;;18.52;14.95;;;9.20;99.90;;;;;;5047042;28;20659;-52
2021/10/28 21:19:02;;;;;;;17.10;15.10;;;8.50;99.90;;;;;;5048158;28;20209;-53
2021/10/28 21:21:28;;;;;;;18.58;14.65;;;8.90;99.90;;;;;;5038519;28;20179;-54
2021/10/28 21:23:54;;;;;;;17.63;15.73;;;8.90;99.90;;;;;;5040119;28;20671;-53
2021/10/28 21:26:20;;;;;;;19.13;14.43;;;8.80;99.90;;;;;;5044917;28;20205;-53
2021/10/28 21:28:46;;;;;;;19.50;15.33;;;8.70;99.90;;;;;;5040781;28;20423;-54
2021/10/28 21:31:12;;;;;;;16.23;14.53;;;8.90;99.90;;;;;;5043051;28;20817;-53
2021/10/28 21:33:38;;;;;;;18.67;15.77;;;8.70;99.90;;;;;;5043423;28;20443;-55
2021/10/28 21:36:04;;;;;;;18.38;14.77;;;8.90;99.90;;;;;;5048160;28;20655;-52
2021/10/28 21:38:29;;;;;;;18.23;16.27;;;8.60;99.90;;;;;;5044033;28;20190;-53
2021/10/28 21:40:55;;;;;;;16.07;14.30;;;8.60;99.90;;;;;;5044917;28;20442;-54
2021/10/28 21:43:22;;;;;;;20.23;15.30;;;8.70;99.90;;;;;;5047454;28;20182;-55
2021/10/28 21:45:50;;;;;;;19.48;16.00;;;8.50;99.90;;;;;;5049592;28;20493;-55